createdAt,value
2018-05-18T00:03:10.687Z,6.40
2018-05-18T00:08:11.648Z,6.30
2018-05-18T00:13:12.614Z,5.47
2018-05-18T00:18:13.607Z,6.50
2018-05-18T00:23:14.575Z,5.67
2018-05-18T00:28:15.544Z,7.67
2018-05-18T00:33:16.532Z,7.23
2018-05-18T00:38:17.500Z,7.03
2018-05-18T00:43:18.487Z,5.97
2018-05-18T00:48:19.476Z,6.50
2018-05-18T00:53:20.481Z,6.37
2018-05-18T00:58:21.452Z,5.93
2018-05-18T01:03:22.432Z,6.20
2018-05-18T01:08:23.408Z,6.90
2018-05-18T01:13:24.381Z,8.30
2018-05-18T01:18:25.369Z,6.47
2018-05-18T01:23:26.379Z,6.40
2018-05-18T01:28:27.418Z,5.10
2018-05-18T01:33:28.397Z,6.60
2018-05-18T01:38:29.407Z,5.40
2018-05-18T01:43:30.362Z,7.93
2018-05-18T01:48:31.339Z,7.10
2018-05-18T01:53:32.331Z,6.07
2018-05-18T01:58:33.283Z,6.23
2018-05-18T02:03:34.280Z,5.77
2018-05-18T02:08:35.264Z,5.63
2018-05-18T02:13:36.245Z,5.50
2018-05-18T02:18:37.223Z,5.67
2018-05-18T02:23:38.175Z,5.70
2018-05-18T02:28:39.206Z,5.83
2018-05-18T02:33:40.179Z,6.20
2018-05-18T02:38:41.169Z,6.83
2018-05-18T02:43:42.133Z,5.40
2018-05-18T02:48:43.133Z,7.03
2018-05-18T02:53:44.124Z,5.53
2018-05-18T02:58:45.095Z,5.80
2018-05-18T03:03:46.068Z,6.27
2018-05-18T03:08:47.056Z,5.30
2018-05-18T03:13:48.041Z,6.97
2018-05-18T03:18:48.999Z,5.67
2018-05-18T03:23:49.962Z,5.63
2018-05-18T03:28:50.986Z,6.03
2018-05-18T03:33:51.965Z,5.80
2018-05-18T03:38:52.949Z,7.00
2018-05-18T03:43:53.932Z,5.77
2018-05-18T03:48:54.947Z,5.63
2018-05-18T03:53:55.937Z,6.10
2018-05-18T03:58:56.949Z,6.10
2018-05-18T04:04:10.173Z,5.83
2018-05-18T04:09:11.138Z,5.80
2018-05-18T04:14:12.149Z,5.70
2018-05-18T04:19:13.109Z,5.80
2018-05-18T04:24:14.064Z,6.27
2018-05-18T04:29:15.059Z,5.83
2018-05-18T04:34:16.043Z,5.40
2018-05-18T04:39:17.004Z,6.63
2018-05-18T04:44:18.017Z,5.07
2018-05-18T04:49:19.045Z,5.97
2018-05-18T04:54:20.032Z,4.70
2018-05-18T04:59:21.023Z,4.20
2018-05-18T05:04:22.040Z,6.40
2018-05-18T05:09:23.043Z,5.00
2018-05-18T05:14:24.017Z,5.23
2018-05-18T05:19:24.987Z,5.90
2018-05-18T05:24:25.943Z,5.20
2018-05-18T05:29:26.941Z,5.60
2018-05-18T05:34:27.918Z,5.73
2018-05-18T05:39:28.902Z,5.70
2018-05-18T05:44:29.905Z,6.10
2018-05-18T05:49:30.921Z,6.20
2018-05-18T05:54:31.904Z,4.90
2018-05-18T05:59:32.859Z,7.10
2018-05-18T06:04:33.839Z,5.90
2018-05-18T06:09:34.851Z,5.70
2018-05-18T06:14:35.821Z,6.53
2018-05-18T06:19:36.836Z,6.60
2018-05-18T06:24:37.781Z,6.50
2018-05-18T06:29:38.769Z,6.40
2018-05-18T06:34:39.761Z,7.10
2018-05-18T06:39:40.758Z,7.53
2018-05-18T06:44:41.749Z,6.37
2018-05-18T06:49:42.731Z,7.13
2018-05-18T06:54:43.715Z,6.10
2018-05-18T06:59:44.689Z,6.23
2018-05-18T07:04:45.699Z,5.13
2018-05-18T07:09:46.698Z,6.83
2018-05-18T07:14:47.674Z,6.53
2018-05-18T07:19:48.636Z,5.87
2018-05-18T07:24:49.623Z,5.03
2018-05-18T07:29:50.624Z,6.30
2018-05-18T07:34:51.610Z,5.37
2018-05-18T07:39:52.602Z,5.93
2018-05-18T07:44:53.591Z,5.80
2018-05-18T07:49:59.540Z,4.80
2018-05-18T07:55:00.527Z,4.83
2018-05-18T08:00:01.540Z,4.60
2018-05-18T08:05:02.506Z,5.00
2018-05-18T08:10:03.476Z,5.70
2018-05-18T08:15:04.532Z,4.57
2018-05-18T08:20:05.485Z,4.43
2018-05-18T08:25:06.491Z,5.30
2018-05-18T08:30:07.483Z,5.50
2018-05-18T08:35:08.431Z,5.27
2018-05-18T08:40:09.398Z,6.00
2018-05-18T08:45:10.414Z,5.80
2018-05-18T08:50:11.421Z,4.87
2018-05-18T08:55:12.453Z,6.33
2018-05-18T09:00:13.562Z,5.70
2018-05-18T09:05:14.549Z,5.47
2018-05-18T09:10:15.515Z,5.53
2018-05-18T09:15:16.492Z,6.80
2018-05-18T09:20:17.541Z,4.80
2018-05-18T09:25:18.549Z,5.93
2018-05-18T09:30:19.585Z,5.03
2018-05-18T09:35:20.564Z,6.50
2018-05-18T09:40:21.580Z,5.60
2018-05-18T09:45:22.549Z,6.17
2018-05-18T09:50:23.524Z,6.33
2018-05-18T09:55:24.700Z,7.50
2018-05-18T10:00:25.542Z,6.10
2018-05-18T10:05:26.593Z,5.70
2018-05-18T10:10:27.592Z,6.70
2018-05-18T10:15:28.571Z,5.63
2018-05-18T10:20:29.544Z,6.43
2018-05-18T10:25:30.581Z,6.33
2018-05-18T10:30:31.588Z,6.00
2018-05-18T10:35:32.569Z,7.20
2018-05-18T10:40:33.581Z,7.70
2018-05-18T10:45:34.563Z,6.60
2018-05-18T10:50:35.543Z,7.43
2018-05-18T10:55:36.554Z,6.63
2018-05-18T11:00:37.514Z,6.63
2018-05-18T11:05:38.483Z,6.73
2018-05-18T11:10:39.487Z,6.10
2018-05-18T11:15:40.488Z,7.77
2018-05-18T11:20:41.444Z,6.77
2018-05-18T11:25:42.421Z,7.80
2018-05-18T11:30:43.463Z,8.43
2018-05-18T11:35:44.441Z,7.70
2018-05-18T11:40:45.433Z,7.13
2018-05-18T11:45:46.427Z,6.83
2018-05-18T11:50:47.411Z,7.47
2018-05-18T11:55:48.406Z,7.10
2018-05-18T12:00:49.380Z,7.70
2018-05-18T12:05:50.368Z,6.50
2018-05-18T12:10:51.388Z,6.80
2018-05-18T12:15:52.394Z,6.93
2018-05-18T12:20:53.372Z,8.20
2018-05-18T12:25:54.344Z,7.47
2018-05-18T12:30:55.375Z,7.90
2018-05-18T12:35:56.366Z,7.80
2018-05-18T12:40:57.382Z,6.73
2018-05-18T12:45:58.365Z,8.60
2018-05-18T12:50:59.353Z,7.03
2018-05-18T12:56:00.327Z,8.53
2018-05-18T13:01:01.328Z,6.60
2018-05-18T13:06:02.339Z,7.73
2018-05-18T13:11:03.340Z,8.03
2018-05-18T13:16:04.309Z,7.10
2018-05-18T13:21:05.292Z,8.20
2018-05-18T13:26:06.304Z,7.50
2018-05-18T13:31:07.347Z,7.10
2018-05-18T13:36:08.368Z,7.00
2018-05-18T13:41:09.368Z,6.50
2018-05-18T13:46:10.351Z,7.13
2018-05-18T13:51:11.349Z,7.27
2018-05-18T13:56:12.369Z,7.10
2018-05-18T14:01:13.360Z,5.60
2018-05-18T14:06:14.368Z,8.00
2018-05-18T14:11:15.364Z,7.90
2018-05-18T14:16:16.358Z,7.17
2018-05-18T14:21:17.368Z,6.63
2018-05-18T14:26:18.480Z,6.53
2018-05-18T14:31:19.426Z,6.67
2018-05-18T14:36:20.445Z,8.10
2018-05-18T14:41:21.429Z,8.10
2018-05-18T14:46:22.442Z,7.20
2018-05-18T14:51:23.422Z,8.93
2018-05-18T14:56:24.434Z,9.73
2018-05-18T15:01:25.405Z,7.60
2018-05-18T15:06:26.433Z,9.27
2018-05-18T15:11:27.407Z,7.30
2018-05-18T15:16:28.445Z,9.37
2018-05-18T15:21:29.432Z,8.60
2018-05-18T15:26:30.446Z,8.97
2018-05-18T15:31:31.459Z,8.70
2018-05-18T15:36:32.464Z,8.83
2018-05-18T15:41:33.447Z,8.40
2018-05-18T15:46:34.457Z,9.30
2018-05-18T15:51:35.475Z,7.87
2018-05-18T15:56:36.484Z,8.73
2018-05-18T16:01:37.519Z,9.57
2018-05-18T16:06:38.475Z,9.07
2018-05-18T16:11:39.500Z,9.37
2018-05-18T16:16:40.485Z,8.30
2018-05-18T16:21:41.468Z,9.00
2018-05-18T16:26:42.448Z,8.60
2018-05-18T16:31:43.477Z,7.90
2018-05-18T16:36:44.483Z,7.90
2018-05-18T16:41:45.460Z,8.33
2018-05-18T16:46:46.446Z,8.20
2018-05-18T16:51:47.463Z,8.30
2018-05-18T16:56:48.505Z,9.60
2018-05-18T17:01:49.513Z,6.73
2018-05-18T17:06:50.508Z,7.70
2018-05-18T17:11:51.523Z,7.10
2018-05-18T17:16:52.524Z,7.80
2018-05-18T17:21:53.529Z,8.60
2018-05-18T17:26:54.537Z,8.03
2018-05-18T17:31:55.581Z,8.10
2018-05-18T17:36:56.607Z,9.03
2018-05-18T17:41:57.600Z,8.87
2018-05-18T17:46:58.615Z,11.23
2018-05-18T17:51:59.672Z,10.30
2018-05-18T17:57:00.725Z,10.10
2018-05-18T18:02:01.774Z,9.87
2018-05-18T18:07:03.632Z,8.20
2018-05-18T18:12:04.612Z,9.17
2018-05-18T18:17:05.620Z,7.87
2018-05-18T18:22:06.650Z,7.80
2018-05-18T18:27:07.676Z,8.50
2018-05-18T18:32:08.736Z,8.30
2018-05-18T18:37:09.792Z,9.27
2018-05-18T18:42:10.835Z,9.13
2018-05-18T18:47:11.861Z,10.37
2018-05-18T18:52:12.900Z,9.47
2018-05-18T18:57:13.892Z,9.23
2018-05-18T19:02:14.884Z,7.87
2018-05-18T19:07:15.928Z,10.20
2018-05-18T19:12:16.924Z,7.80
2018-05-18T19:17:17.909Z,8.40
2018-05-18T19:22:18.899Z,7.57
2018-05-18T19:27:19.923Z,8.20
2018-05-18T19:32:21.017Z,8.10
2018-05-18T19:37:22.066Z,7.67
2018-05-18T19:42:23.046Z,7.80
2018-05-18T19:47:24.050Z,8.43
2018-05-18T19:52:25.060Z,9.33
2018-05-18T19:57:26.198Z,8.07
2018-05-18T20:02:27.163Z,7.60
2018-05-18T20:07:28.232Z,7.60
2018-05-18T20:12:29.280Z,8.93
2018-05-18T20:17:30.326Z,8.80
2018-05-18T20:22:31.393Z,9.07
2018-05-18T20:27:32.414Z,8.43
2018-05-18T20:32:33.484Z,8.60
2018-05-18T20:37:34.502Z,9.63
2018-05-18T20:42:35.557Z,8.80
2018-05-18T20:47:36.616Z,9.47
2018-05-18T20:52:37.644Z,8.70
2018-05-18T20:57:38.709Z,9.53
2018-05-18T21:02:39.712Z,8.20
2018-05-18T21:07:40.731Z,7.03
2018-05-18T21:12:41.762Z,8.07
2018-05-18T21:17:42.801Z,7.60
2018-05-18T21:22:43.799Z,8.07
2018-05-18T21:27:44.833Z,10.07
2018-05-18T21:32:45.879Z,11.20
2018-05-18T21:37:46.862Z,9.43
2018-05-18T21:42:47.875Z,9.60
2018-05-18T21:47:48.902Z,9.00
2018-05-18T21:52:49.867Z,9.60
2018-05-18T21:57:50.894Z,10.77
2018-05-18T22:02:51.897Z,10.37
2018-05-18T22:07:52.880Z,12.27
2018-05-18T22:12:53.871Z,11.37
2018-05-18T22:17:55.799Z,13.90
2018-05-18T22:22:56.778Z,13.87
2018-05-18T22:27:57.759Z,10.90
2018-05-18T22:32:58.799Z,13.53
2018-05-18T22:37:59.784Z,11.10
2018-05-18T22:43:00.792Z,13.60
2018-05-18T22:48:01.775Z,12.20
2018-05-18T22:53:02.822Z,12.90
2018-05-18T22:58:03.840Z,12.40
2018-05-18T23:03:04.835Z,12.70
2018-05-18T23:08:05.829Z,11.60
2018-05-18T23:13:06.827Z,12.73
2018-05-18T23:18:07.795Z,12.17
2018-05-18T23:23:08.764Z,11.37
2018-05-18T23:28:09.742Z,11.17
2018-05-18T23:33:10.784Z,10.43
2018-05-18T23:38:12.690Z,9.43
2018-05-18T23:43:13.713Z,7.90
2018-05-18T23:48:14.705Z,9.53
2018-05-18T23:53:15.707Z,9.07
2018-05-18T23:58:17.471Z,8.37
